createdAt,value
2023-03-06T00:02:16.763Z,97815.49
2023-03-06T00:05:10.334Z,97813.11
2023-03-06T00:08:02.396Z,97819.63
2023-03-06T00:10:54.395Z,97813.07
2023-03-06T00:13:46.510Z,97809.28
2023-03-06T00:16:38.526Z,97804.65
2023-03-06T00:19:30.530Z,97795.69
2023-03-06T00:22:22.556Z,97789.49
2023-03-06T00:25:17.922Z,97788.46
2023-03-06T00:27:58.629Z,97791.27
2023-03-06T00:30:50.964Z,97789.89
2023-03-06T00:33:43.531Z,97792.98
2023-03-06T00:36:35.509Z,97792.13
2023-03-06T00:39:27.501Z,97784.20
2023-03-06T00:42:20.536Z,97787.48
2023-03-06T00:45:13.787Z,97794.54
2023-03-06T00:47:48.501Z,97796.77
2023-03-06T00:50:40.559Z,97801.06
2023-03-06T00:53:32.584Z,97803.83
2023-03-06T00:56:25.173Z,97799.36
2023-03-06T00:59:17.279Z,97794.86
2023-03-06T01:01:49.490Z,97803.25
2023-03-06T01:04:42.078Z,97802.73
2023-03-06T01:07:24.116Z,97804.09
2023-03-06T01:10:16.208Z,97804.08
2023-03-06T01:12:58.637Z,97803.90
2023-03-06T01:15:50.729Z,97803.38
2023-03-06T01:18:27.960Z,97805.45
2023-03-06T01:21:19.968Z,97806.48
2023-03-06T01:24:12.111Z,97800.81
2023-03-06T01:27:04.280Z,97802.35
2023-03-06T01:29:56.364Z,97804.23
2023-03-06T01:32:49.176Z,97804.59
2023-03-06T01:35:23.826Z,97802.70
2023-03-06T01:38:16.671Z,97799.45
2023-03-06T01:40:51.406Z,97795.51
2023-03-06T01:43:44.405Z,97791.04
2023-03-06T01:46:42.062Z,97791.90
2023-03-06T01:49:21.059Z,97786.40
2023-03-06T01:52:16.655Z,97788.98
2023-03-06T01:55:12.233Z,97784.84
2023-03-06T01:58:11.411Z,97784.83
2023-03-06T02:01:03.472Z,97781.73
2023-03-06T02:03:56.331Z,97781.20
2023-03-06T02:06:40.678Z,97777.77
2023-03-06T02:09:34.697Z,97779.83
2023-03-06T02:12:27.424Z,97774.50
2023-03-06T02:15:23.448Z,97773.67
2023-03-06T02:18:11.443Z,97773.89
2023-03-06T02:21:06.928Z,97770.81
2023-03-06T02:24:09.756Z,97768.77
2023-03-06T02:27:03.391Z,97771.89
2023-03-06T02:29:56.113Z,97772.23
2023-03-06T02:32:48.260Z,97771.02
2023-03-06T02:35:41.766Z,97770.85
2023-03-06T02:38:40.656Z,97763.63
2023-03-06T02:41:32.921Z,97765.88
2023-03-06T02:44:27.406Z,97763.12
2023-03-06T02:47:19.532Z,97762.09
2023-03-06T02:50:12.793Z,97762.95
2023-03-06T02:53:05.086Z,97764.71
2023-03-06T02:55:57.369Z,97764.37
2023-03-06T02:58:49.545Z,97760.94
2023-03-06T03:01:41.689Z,97758.19
2023-03-06T03:04:33.823Z,97759.22
2023-03-06T03:07:08.965Z,97760.91
2023-03-06T03:10:01.126Z,97764.55
2023-03-06T03:12:36.225Z,97755.77
2023-03-06T03:15:28.280Z,97758.17
2023-03-06T03:18:20.351Z,97754.92
2023-03-06T03:20:55.447Z,97758.36
2023-03-06T03:23:47.601Z,97755.79
2023-03-06T03:26:39.635Z,97759.92
2023-03-06T03:29:15.438Z,97751.15
2023-03-06T03:32:08.392Z,97740.66
2023-03-06T03:35:00.669Z,97739.45
2023-03-06T03:37:54.681Z,97734.42
2023-03-06T03:40:46.817Z,97729.58
2023-03-06T03:43:39.049Z,97726.13
2023-03-06T03:46:13.732Z,97723.70
2023-03-06T03:49:05.888Z,97725.54
2023-03-06T03:51:57.882Z,97720.71
2023-03-06T03:54:49.855Z,97719.48
2023-03-06T03:57:43.114Z,97716.48
2023-03-06T04:00:35.151Z,97718.20
2023-03-06T04:03:27.183Z,97724.73
2023-03-06T04:06:19.425Z,97731.09
2023-03-06T04:09:11.530Z,97732.30
2023-03-06T04:12:03.714Z,97723.30
2023-03-06T04:14:55.760Z,97716.20
2023-03-06T04:17:47.801Z,97715.08
2023-03-06T04:20:40.248Z,97713.09
2023-03-06T04:23:32.644Z,97713.57
2023-03-06T04:26:24.680Z,97708.35
2023-03-06T04:29:17.072Z,97708.48
2023-03-06T04:32:10.334Z,97705.38
2023-03-06T04:35:02.368Z,97705.52
2023-03-06T04:37:36.997Z,97701.02
2023-03-06T04:40:31.277Z,97705.52
2023-03-06T04:43:23.554Z,97696.96
2023-03-06T04:46:15.608Z,97695.79
2023-03-06T04:49:08.022Z,97696.72
2023-03-06T04:52:00.145Z,97694.50
2023-03-06T04:54:34.799Z,97696.58
2023-03-06T04:57:26.821Z,97692.83
2023-03-06T05:00:21.450Z,97690.80
2023-03-06T05:03:04.697Z,97689.44
2023-03-06T05:05:56.773Z,97684.83
2023-03-06T05:08:49.133Z,97681.04
2023-03-06T05:11:26.096Z,97676.39
2023-03-06T05:14:18.074Z,97675.88
2023-03-06T05:16:58.999Z,97678.12
2023-03-06T05:19:51.080Z,97677.61
2023-03-06T05:22:43.381Z,97671.79
2023-03-06T05:25:35.486Z,97672.31
2023-03-06T05:28:28.720Z,97670.65
2023-03-06T05:31:20.804Z,97665.83
2023-03-06T05:34:16.244Z,97663.44
2023-03-06T05:37:08.439Z,97661.89
2023-03-06T05:40:01.310Z,97662.41
2023-03-06T05:42:53.363Z,97662.07
2023-03-06T05:45:46.270Z,97666.72
2023-03-06T05:48:38.571Z,97662.77
2023-03-06T05:51:30.797Z,97657.44
2023-03-06T05:54:13.240Z,97656.09
2023-03-06T05:57:06.144Z,97657.17
2023-03-06T05:59:58.320Z,97660.63
2023-03-06T06:02:50.521Z,97661.73
2023-03-06T06:05:43.135Z,97661.75
2023-03-06T06:08:37.113Z,97658.54
2023-03-06T06:11:13.524Z,97660.61
2023-03-06T06:14:05.546Z,97656.98
2023-03-06T06:16:57.728Z,97658.88
2023-03-06T06:19:49.713Z,97662.33
2023-03-06T06:22:41.710Z,97660.97
2023-03-06T06:25:34.100Z,97661.20
2023-03-06T06:28:26.135Z,97655.53
2023-03-06T06:31:18.154Z,97657.26
2023-03-06T06:34:11.581Z,97659.02
2023-03-06T06:36:47.120Z,97660.10
2023-03-06T06:39:39.265Z,97662.42
2023-03-06T06:42:37.755Z,97666.11
2023-03-06T06:45:31.781Z,97663.92
2023-03-06T06:48:23.846Z,97658.80
2023-03-06T06:51:16.091Z,97659.88
2023-03-06T06:53:59.474Z,97661.46
2023-03-06T06:56:31.445Z,97660.10
2023-03-06T06:59:24.113Z,97659.08
2023-03-06T07:02:01.274Z,97658.58
2023-03-06T07:04:52.322Z,97656.16
2023-03-06T07:07:50.936Z,97659.98
2023-03-06T07:10:43.042Z,97659.80
2023-03-06T07:13:35.440Z,97658.25
2023-03-06T07:16:17.302Z,97662.02
2023-03-06T07:19:09.857Z,97663.86
2023-03-06T07:21:52.233Z,97665.02
2023-03-06T07:24:44.356Z,97662.52
2023-03-06T07:27:36.461Z,97664.86
2023-03-06T07:30:28.512Z,97666.73
2023-03-06T07:33:20.612Z,97669.43
2023-03-06T07:36:14.021Z,97664.20
2023-03-06T07:39:06.490Z,97660.48
2023-03-06T07:41:48.817Z,97664.53
2023-03-06T07:44:40.850Z,97666.92
2023-03-06T07:47:18.166Z,97666.04
2023-03-06T07:50:03.047Z,97668.60
2023-03-06T07:52:46.210Z,97669.47
2023-03-06T07:55:34.362Z,97666.89
2023-03-06T07:58:15.100Z,97668.24
2023-03-06T08:01:09.451Z,97670.76
2023-03-06T08:03:44.945Z,97671.52
2023-03-06T08:06:21.608Z,97670.28
2023-03-06T08:09:04.836Z,97673.60
2023-03-06T08:11:42.302Z,97672.30
2023-03-06T08:14:37.075Z,97675.42
2023-03-06T08:17:11.604Z,97667.46
2023-03-06T08:20:03.573Z,97664.52
2023-03-06T08:22:55.528Z,97664.41
2023-03-06T08:25:47.466Z,97665.00
2023-03-06T08:28:39.536Z,97660.29
2023-03-06T08:31:33.620Z,97665.04
2023-03-06T08:34:18.951Z,97664.80
2023-03-06T08:37:10.925Z,97662.04
2023-03-06T08:40:04.587Z,97659.93
2023-03-06T08:42:56.673Z,97665.09
2023-03-06T08:45:54.311Z,97666.05
2023-03-06T08:48:47.700Z,97662.57
2023-03-06T08:51:23.056Z,97661.30
2023-03-06T08:53:57.993Z,97663.44
2023-03-06T08:56:34.737Z,97659.83
2023-03-06T08:59:10.476Z,97659.54
2023-03-06T09:02:03.972Z,97658.48
2023-03-06T09:04:56.118Z,97656.42
2023-03-06T09:07:43.630Z,97657.34
2023-03-06T09:10:36.102Z,97658.20
2023-03-06T09:13:19.329Z,97658.27
2023-03-06T09:16:01.417Z,97658.27
2023-03-06T09:18:54.295Z,97657.73
2023-03-06T09:21:31.705Z,97653.55
2023-03-06T09:24:03.598Z,97650.62
2023-03-06T09:26:55.651Z,97645.73
2023-03-06T09:29:47.646Z,97640.70
2023-03-06T09:32:39.745Z,97638.34
2023-03-06T09:35:32.006Z,97635.95
2023-03-06T09:38:26.363Z,97633.19
2023-03-06T09:41:26.312Z,97634.71
2023-03-06T09:44:20.954Z,97630.52
2023-03-06T09:47:18.375Z,97630.70
2023-03-06T09:50:19.829Z,97627.70
2023-03-06T09:53:04.404Z,97621.42
2023-03-06T09:56:01.980Z,97619.40
2023-03-06T09:58:42.927Z,97614.22
2023-03-06T10:01:40.928Z,97606.22
2023-03-06T10:04:26.477Z,97612.28
2023-03-06T10:07:23.696Z,97606.52
2023-03-06T10:10:02.173Z,97611.13
2023-03-06T10:12:47.257Z,97605.65
2023-03-06T10:15:42.508Z,97606.05
2023-03-06T10:18:31.657Z,97601.27
2023-03-06T10:21:40.176Z,97600.79
2023-03-06T10:24:43.351Z,97595.96
2023-03-06T10:27:37.947Z,97596.11
2023-03-06T10:30:34.817Z,97594.04
2023-03-06T10:33:41.333Z,97590.00
2023-03-06T10:36:33.270Z,97587.33
2023-03-06T10:39:25.433Z,97580.41
2023-03-06T10:42:17.751Z,97575.99
2023-03-06T10:45:10.596Z,97571.93
2023-03-06T10:48:18.544Z,97569.55
2023-03-06T10:51:20.380Z,97568.71
2023-03-06T10:53:59.924Z,97558.80
2023-03-06T10:56:36.102Z,97561.84
2023-03-06T10:59:14.802Z,97557.69
2023-03-06T11:01:58.799Z,97551.84
2023-03-06T11:04:55.282Z,97553.27
2023-03-06T11:07:32.231Z,97544.52
2023-03-06T11:10:24.488Z,97544.58
2023-03-06T11:13:24.800Z,97546.02
2023-03-06T11:16:06.702Z,97543.88
2023-03-06T11:18:43.169Z,97541.34
2023-03-06T11:21:37.328Z,97529.83
2023-03-06T11:24:16.767Z,97530.41
2023-03-06T11:27:24.846Z,97522.69
2023-03-06T11:30:23.371Z,97518.00
2023-03-06T11:33:01.864Z,97515.89
2023-03-06T11:35:51.567Z,97508.34
2023-03-06T11:38:35.229Z,97507.84
2023-03-06T11:41:19.248Z,97509.47
2023-03-06T11:44:23.304Z,97509.08
2023-03-06T11:47:15.914Z,97506.77
2023-03-06T11:50:22.375Z,97501.84
2023-03-06T11:53:16.621Z,97500.20
2023-03-06T11:55:58.900Z,97496.52
2023-03-06T11:59:23.395Z,97498.12
2023-03-06T12:02:26.428Z,97498.09
2023-03-06T12:05:24.299Z,97501.00
2023-03-06T12:08:44.286Z,97497.16
2023-03-06T12:11:33.253Z,97489.67
2023-03-06T12:14:40.182Z,97487.06
2023-03-06T12:17:22.694Z,97487.08
2023-03-06T12:20:21.026Z,97487.30
2023-03-06T12:23:26.713Z,97481.48
2023-03-06T12:26:40.342Z,97477.14
2023-03-06T12:29:59.810Z,97468.71
2023-03-06T12:33:02.106Z,97461.86
2023-03-06T12:36:13.798Z,97462.79
2023-03-06T12:39:15.864Z,97462.02
2023-03-06T12:42:11.297Z,97460.30
2023-03-06T12:45:18.532Z,97457.95
2023-03-06T12:48:17.282Z,97452.39
2023-03-06T12:50:59.018Z,97451.63
2023-03-06T12:53:52.833Z,97450.51
2023-03-06T12:56:46.172Z,97443.44
2023-03-06T12:59:43.983Z,97441.16
2023-03-06T13:03:05.859Z,97437.46
2023-03-06T13:06:13.927Z,97427.59
2023-03-06T13:09:17.831Z,97421.39
2023-03-06T13:12:25.833Z,97417.20
2023-03-06T13:16:06.239Z,97414.59
2023-03-06T13:19:01.982Z,97421.52
2023-03-06T13:22:14.092Z,97417.50
2023-03-06T13:25:39.024Z,97410.84
2023-03-06T13:28:40.235Z,97412.12
2023-03-06T13:32:05.741Z,97402.73
2023-03-06T13:34:58.137Z,97403.05
2023-03-06T13:37:53.715Z,97400.40
2023-03-06T13:40:39.024Z,97402.63
2023-03-06T13:43:32.012Z,97400.21
2023-03-06T13:46:28.736Z,97399.92
2023-03-06T13:49:21.149Z,97404.81
2023-03-06T13:52:24.058Z,97402.37
2023-03-06T13:55:17.954Z,97400.92
2023-03-06T13:58:30.755Z,97394.64
2023-03-06T14:01:28.957Z,97396.50
2023-03-06T14:04:34.632Z,97394.01
2023-03-06T14:07:25.114Z,97389.90
2023-03-06T14:10:24.053Z,97388.63
2023-03-06T14:13:07.884Z,97392.42
2023-03-06T14:15:59.813Z,97390.70
2023-03-06T14:18:47.565Z,97391.16
2023-03-06T14:21:31.854Z,97391.09
2023-03-06T14:24:22.870Z,97390.55
2023-03-06T14:26:57.602Z,97390.26
2023-03-06T14:29:49.861Z,97393.59
2023-03-06T14:32:42.959Z,97393.80
2023-03-06T14:35:26.724Z,97389.73
2023-03-06T14:38:17.288Z,97393.77
2023-03-06T14:41:11.384Z,97391.55
2023-03-06T14:44:17.999Z,97396.23
2023-03-06T14:47:28.581Z,97411.95
2023-03-06T14:50:29.537Z,97433.92
2023-03-06T14:53:26.029Z,97440.30
2023-03-06T14:56:21.197Z,97452.14
2023-03-06T14:59:17.455Z,97450.02
2023-03-06T15:02:12.684Z,97447.55
2023-03-06T15:04:50.038Z,97445.42
2023-03-06T15:07:43.055Z,97444.12
2023-03-06T15:10:37.586Z,97439.66
2023-03-06T15:13:31.779Z,97443.91
2023-03-06T15:16:30.393Z,97449.36
2023-03-06T15:19:06.281Z,97444.39
2023-03-06T15:21:41.391Z,97440.43
2023-03-06T15:24:37.948Z,97443.05
2023-03-06T15:27:32.270Z,97440.41
2023-03-06T15:30:32.990Z,97442.27
2023-03-06T15:33:27.834Z,97441.85
2023-03-06T15:36:17.808Z,97437.66
2023-03-06T15:39:33.776Z,97444.04
2023-03-06T15:42:28.024Z,97445.30
2023-03-06T15:45:22.486Z,97447.26
2023-03-06T15:48:19.196Z,97445.73
2023-03-06T15:51:11.288Z,97448.35
2023-03-06T15:54:11.857Z,97451.66
2023-03-06T15:56:51.704Z,97450.45
2023-03-06T15:59:36.960Z,97442.70
2023-03-06T16:02:29.079Z,97445.67
2023-03-06T16:05:22.246Z,97437.25
2023-03-06T16:08:14.926Z,97440.57
2023-03-06T16:11:07.319Z,97432.70
2023-03-06T16:13:45.331Z,97434.81
2023-03-06T16:16:39.574Z,97435.02
2023-03-06T16:19:31.700Z,97432.80
2023-03-06T16:22:23.711Z,97432.66
2023-03-06T16:25:15.561Z,97435.83
2023-03-06T16:28:12.322Z,97436.80
2023-03-06T16:31:01.658Z,97438.79
2023-03-06T16:33:36.399Z,97436.58
2023-03-06T16:36:30.134Z,97438.33
2023-03-06T16:39:24.612Z,97436.63
2023-03-06T16:41:56.463Z,97437.66
2023-03-06T16:44:48.611Z,97436.42
2023-03-06T16:47:29.922Z,97435.77
2023-03-06T16:50:33.028Z,97433.02
2023-03-06T16:53:25.002Z,97429.06
2023-03-06T16:56:15.700Z,97429.59
2023-03-06T16:59:07.865Z,97423.55
2023-03-06T17:01:56.090Z,97425.45
2023-03-06T17:04:48.105Z,97424.14
2023-03-06T17:07:22.804Z,97423.30
2023-03-06T17:10:18.756Z,97425.91
2023-03-06T17:13:12.404Z,97423.52
2023-03-06T17:16:04.642Z,97424.38
2023-03-06T17:18:58.191Z,97431.84
2023-03-06T17:21:50.699Z,97442.25
2023-03-06T17:24:42.813Z,97444.20
2023-03-06T17:27:25.410Z,97451.48
2023-03-06T17:30:18.049Z,97449.95
2023-03-06T17:32:52.214Z,97448.77
2023-03-06T17:35:44.174Z,97442.95
2023-03-06T17:38:19.704Z,97447.77
2023-03-06T17:41:13.312Z,97441.92
2023-03-06T17:44:05.516Z,97445.23
2023-03-06T17:46:42.542Z,97446.83
2023-03-06T17:49:34.628Z,97444.58
2023-03-06T17:52:15.403Z,97449.61
2023-03-06T17:55:09.023Z,97455.16
2023-03-06T17:58:01.132Z,97453.45
2023-03-06T18:00:53.488Z,97459.84
2023-03-06T18:03:28.180Z,97461.40
2023-03-06T18:06:22.090Z,97460.02
2023-03-06T18:09:10.374Z,97460.70
2023-03-06T18:11:51.114Z,97460.85
2023-03-06T18:14:43.195Z,97462.06
2023-03-06T18:17:24.378Z,97461.36
2023-03-06T18:20:17.631Z,97458.75
2023-03-06T18:23:09.828Z,97462.36
2023-03-06T18:25:52.661Z,97463.91
2023-03-06T18:28:47.330Z,97464.63
2023-03-06T18:31:41.704Z,97466.54
2023-03-06T18:34:33.700Z,97467.59
2023-03-06T18:37:26.141Z,97472.09
2023-03-06T18:40:01.138Z,97473.11
2023-03-06T18:42:35.921Z,97477.43
2023-03-06T18:45:28.028Z,97478.14
2023-03-06T18:48:16.404Z,97480.71
2023-03-06T18:51:10.723Z,97477.95
2023-03-06T18:54:04.473Z,97477.76
2023-03-06T18:56:47.357Z,97476.02
2023-03-06T18:59:28.773Z,97476.54
2023-03-06T19:02:21.123Z,97475.85
2023-03-06T19:04:56.248Z,97475.19
2023-03-06T19:07:48.784Z,97476.42
2023-03-06T19:10:42.276Z,97473.13
2023-03-06T19:13:34.398Z,97474.16
2023-03-06T19:16:28.852Z,97466.73
2023-03-06T19:19:20.891Z,97465.70
2023-03-06T19:21:58.114Z,97467.77
2023-03-06T19:24:46.876Z,97467.77
2023-03-06T19:27:27.752Z,97466.70
2023-03-06T19:30:25.374Z,97459.60
2023-03-06T19:33:17.784Z,97460.33
2023-03-06T19:36:12.264Z,97458.81
2023-03-06T19:39:07.414Z,97453.34
2023-03-06T19:41:59.484Z,97450.24
2023-03-06T19:44:51.484Z,97449.92
2023-03-06T19:47:43.434Z,97448.90
2023-03-06T19:50:36.815Z,97446.14
2023-03-06T19:53:14.056Z,97444.42
2023-03-06T19:56:08.601Z,97446.66
2023-03-06T19:59:00.613Z,97446.84
2023-03-06T20:01:41.743Z,97440.61
2023-03-06T20:04:17.041Z,97440.08
2023-03-06T20:07:09.060Z,97445.92
2023-03-06T20:09:50.128Z,97441.27
2023-03-06T20:12:24.684Z,97446.45
2023-03-06T20:14:59.210Z,97443.34
2023-03-06T20:17:41.689Z,97443.52
2023-03-06T20:20:16.547Z,97441.79
2023-03-06T20:23:09.133Z,97444.75
2023-03-06T20:26:04.462Z,97445.45
2023-03-06T20:28:56.671Z,97445.27
2023-03-06T20:31:49.062Z,97443.90
2023-03-06T20:34:32.763Z,97447.02
2023-03-06T20:37:24.741Z,97442.39
2023-03-06T20:40:01.934Z,97442.24
2023-03-06T20:42:54.465Z,97441.23
2023-03-06T20:45:58.342Z,97441.40
2023-03-06T20:48:33.375Z,97441.23
2023-03-06T20:51:27.904Z,97445.02
2023-03-06T20:54:20.120Z,97446.06
2023-03-06T20:57:12.120Z,97442.30
2023-03-06T21:00:04.591Z,97443.52
2023-03-06T21:02:56.639Z,97441.80
2023-03-06T21:05:50.068Z,97442.86
2023-03-06T21:08:42.210Z,97438.40
2023-03-06T21:11:34.793Z,97439.45
2023-03-06T21:14:26.758Z,97437.54
2023-03-06T21:17:18.831Z,97439.80
2023-03-06T21:20:13.001Z,97439.47
2023-03-06T21:23:05.003Z,97440.52
2023-03-06T21:25:57.145Z,97439.65
2023-03-06T21:28:49.361Z,97441.20
2023-03-06T21:31:31.536Z,97439.49
2023-03-06T21:34:19.887Z,97439.52
2023-03-06T21:37:11.925Z,97444.68
2023-03-06T21:40:06.614Z,97445.21
2023-03-06T21:42:49.039Z,97447.45
2023-03-06T21:45:33.200Z,97443.14
2023-03-06T21:48:25.249Z,97440.55
2023-03-06T21:51:19.875Z,97441.55
2023-03-06T21:54:13.021Z,97438.96
2023-03-06T21:57:05.436Z,97438.41
2023-03-06T21:59:57.480Z,97439.42
2023-03-06T22:02:49.537Z,97434.92
2023-03-06T22:05:41.803Z,97434.38
2023-03-06T22:08:33.886Z,97431.45
2023-03-06T22:11:16.570Z,97434.54
2023-03-06T22:13:53.177Z,97424.36
2023-03-06T22:16:56.708Z,97424.38
2023-03-06T22:19:35.711Z,97423.70
2023-03-06T22:22:28.180Z,97422.35
2023-03-06T22:25:20.235Z,97420.64
2023-03-06T22:28:13.060Z,97422.75
2023-03-06T22:31:10.750Z,97426.89
2023-03-06T22:34:03.339Z,97425.70
2023-03-06T22:36:55.348Z,97425.88
2023-03-06T22:39:47.427Z,97428.30
2023-03-06T22:42:39.441Z,97426.92
2023-03-06T22:45:34.735Z,97427.27
2023-03-06T22:48:26.788Z,97427.27
2023-03-06T22:51:05.838Z,97427.45
2023-03-06T22:53:58.163Z,97423.30
2023-03-06T22:56:30.000Z,97425.88
2023-03-06T22:59:02.175Z,97425.88
2023-03-06T23:01:39.379Z,97428.28
2023-03-06T23:04:31.501Z,97428.45
2023-03-06T23:07:23.761Z,97424.85
2023-03-06T23:10:15.812Z,97425.72
2023-03-06T23:13:07.962Z,97422.45
2023-03-06T23:16:02.225Z,97423.14
2023-03-06T23:18:54.956Z,97424.01
2023-03-06T23:21:47.007Z,97420.57
2023-03-06T23:24:39.274Z,97423.48
2023-03-06T23:27:31.405Z,97421.59
2023-03-06T23:30:23.369Z,97419.34
2023-03-06T23:33:15.311Z,97424.69
2023-03-06T23:36:10.174Z,97426.06
2023-03-06T23:39:02.285Z,97424.88
2023-03-06T23:41:54.218Z,97427.11
2023-03-06T23:44:46.307Z,97424.52
2023-03-06T23:47:38.357Z,97428.30
2023-03-06T23:50:30.428Z,97426.59
2023-03-06T23:53:23.321Z,97427.44
2023-03-06T23:56:16.022Z,97419.48
2023-03-06T23:59:08.134Z,97424.65
